Mehama, Oregon
Current Conditions -  °F | °C
As of 7:56 AM on Thursday 23 Oct 2014 (Local Time) from KSLE Reporting Station
Light Rain Light Rain  
Wind Chill: 57°   Ceiling: 8000
Heat Index: 57°   Visibility: 10mi
Dew Point: 54°   Wind: 12mph
Humidity: 89%   Direction: 210°SSW
Pressure: 29.79"   Gusts: NA
Location:  44.79°N, 122.62°W
Report Text: KSLE 231456Z 21010KT 10SM -RA FEW017 SCT065 OVC080 14/12 A2979 RMK AO2 SLP086 P0021 60030 T01390122 53008
Loading
Personal Weather Stations






























Interactive Weather Map
Tropical Storm Tracking
New forecast layout! Learn more

10-Day Weather Forecast

Advertisements
Track Severe Weather on mobile